Time;durP1;ratioP1;P1;durP2;ratioP2;P2;SDS_P1;SDS_P2;PMS_P1;PMS_P2;Temp;Humidity;BMP_temperature;BMP_pressure;BME280_temperature;BME280_humidity;BME280_pressure;Samples;Min_cycle;Max_cycle;Signal;HPM_P1;HPM_P2
2023/06/02 00:01:04;;;;;;;12.68;3.45;;;11.00;99.90;;;;;;7370601;19;20023;-65
2023/06/02 00:03:33;;;;;;;15.40;3.78;;;11.10;99.90;;;;;;7374236;19;20038;-65
2023/06/02 00:06:08;;;;;;;16.70;4.50;;;11.00;99.90;;;;;;7373178;19;20022;-65
2023/06/02 00:08:38;;;;;;;13.77;3.80;;;11.00;99.90;;;;;;7373589;19;20022;-65
2023/06/02 00:11:06;;;;;;;14.57;3.72;;;11.00;99.90;;;;;;7373850;19;20022;-61
2023/06/02 00:13:33;;;;;;;12.55;3.45;;;11.00;99.90;;;;;;7376179;19;20518;-61
2023/06/02 00:16:00;;;;;;;18.90;3.75;;;11.00;99.90;;;;;;7371605;19;20014;-61
2023/06/02 00:18:27;;;;;;;13.65;3.13;;;11.00;99.90;;;;;;7369875;19;20026;-65
2023/06/02 00:20:56;;;;;;;13.73;3.55;;;11.00;99.90;;;;;;7369392;19;20018;-61
2023/06/02 00:23:23;;;;;;;15.05;3.88;;;11.00;99.90;;;;;;7372557;19;20104;-61
2023/06/02 00:25:50;;;;;;;12.80;3.47;;;10.90;99.90;;;;;;7372176;19;20026;-60
2023/06/02 00:28:19;;;;;;;14.60;3.33;;;10.90;99.90;;;;;;7371246;19;20022;-61
2023/06/02 00:30:45;;;;;;;14.75;3.55;;;10.90;99.90;;;;;;7370313;19;20048;-62
2023/06/02 00:33:12;;;;;;;19.42;3.72;;;10.90;99.90;;;;;;7361478;19;20014;-61
2023/06/02 00:35:38;;;;;;;15.18;4.18;;;10.90;99.90;;;;;;7372644;19;20040;-62
2023/06/02 00:38:05;;;;;;;17.33;3.78;;;11.00;99.90;;;;;;7368703;19;20026;-62
2023/06/02 00:40:32;;;;;;;13.80;3.35;;;11.00;99.90;;;;;;7370445;19;20027;-65
2023/06/02 00:43:02;;;;;;;15.98;3.75;;;11.00;99.90;;;;;;7366605;19;20026;-65
2023/06/02 00:45:28;;;;;;;13.48;4.97;;;10.90;99.90;;;;;;7373286;19;20018;-66
2023/06/02 00:47:55;;;;;;;13.25;3.80;;;11.00;99.90;;;;;;7370581;19;20022;-67
2023/06/02 00:50:25;;;;;;;13.55;3.13;;;11.00;99.90;;;;;;7373598;19;20039;-62
2023/06/02 00:52:55;;;;;;;14.05;3.75;;;10.90;99.90;;;;;;7368498;19;20029;-62
2023/06/02 00:55:22;;;;;;;14.32;3.83;;;11.00;99.90;;;;;;7372666;19;20030;-62
2023/06/02 00:57:51;;;;;;;18.77;3.50;;;11.00;99.90;;;;;;7368553;19;20019;-62
2023/06/02 01:00:24;;;;;;;13.90;3.35;;;11.00;99.90;;;;;;7370674;19;20019;-62
2023/06/02 01:02:53;;;;;;;18.38;4.22;;;11.00;99.90;;;;;;7366175;19;20026;-66
2023/06/02 01:05:20;;;;;;;16.25;4.60;;;11.00;99.90;;;;;;7368189;19;20481;-66
2023/06/02 01:07:51;;;;;;;15.27;3.45;;;10.90;99.90;;;;;;7367238;19;20018;-66
2023/06/02 01:10:17;;;;;;;9.70;3.13;;;10.90;99.90;;;;;;7368242;19;20018;-65
2023/06/02 01:12:44;;;;;;;10.05;3.10;;;10.90;99.90;;;;;;7364552;19;20029;-65
2023/06/02 01:15:11;;;;;;;14.55;3.80;;;10.90;99.90;;;;;;7368455;19;20578;-66
2023/06/02 01:17:38;;;;;;;19.25;3.80;;;10.90;99.90;;;;;;7367643;19;20644;-66
2023/06/02 01:20:10;;;;;;;10.80;4.10;;;10.80;99.90;;;;;;7367722;19;20018;-65
2023/06/02 01:22:53;;;;;;;14.48;3.80;;;10.80;99.90;;;;;;7367680;19;20079;-66
2023/06/02 01:25:25;;;;;;;14.43;3.30;;;10.80;99.90;;;;;;7370661;19;20043;-65
2023/06/02 01:27:52;;;;;;;17.15;3.55;;;10.80;99.90;;;;;;7366094;19;20018;-65
2023/06/02 01:30:19;;;;;;;14.63;3.53;;;10.80;99.90;;;;;;7361711;19;20022;-65
2023/06/02 01:33:08;;;;;;;11.65;4.15;;;10.80;99.90;;;;;;7370588;19;20494;-65
2023/06/02 01:35:43;;;;;;;19.02;4.47;;;10.80;99.90;;;;;;7367820;19;20037;-65
2023/06/02 01:38:10;;;;;;;14.98;3.63;;;10.80;99.90;;;;;;7366486;19;20026;-66
2023/06/02 01:40:38;;;;;;;19.55;3.33;;;10.70;99.90;;;;;;7367487;19;20019;-65
2023/06/02 01:43:05;;;;;;;17.33;3.35;;;10.70;99.90;;;;;;7367235;19;20623;-65
2023/06/02 01:45:33;;;;;;;14.23;3.83;;;10.70;99.90;;;;;;7369130;19;20015;-62
2023/06/02 01:48:04;;;;;;;14.40;3.50;;;10.70;99.90;;;;;;7364633;19;20027;-61
2023/06/02 01:50:31;;;;;;;14.50;3.75;;;10.70;99.90;;;;;;7369551;19;20007;-61
2023/06/02 01:52:58;;;;;;;16.35;3.78;;;10.70;99.90;;;;;;7369172;19;20010;-61
2023/06/02 01:55:24;;;;;;;17.27;3.65;;;10.70;99.90;;;;;;7372654;19;20014;-61
2023/06/02 01:57:51;;;;;;;14.43;3.22;;;10.70;99.90;;;;;;7367808;19;20026;-61
2023/06/02 02:00:19;;;;;;;20.25;4.75;;;10.70;99.90;;;;;;7368544;19;20523;-61
2023/06/02 02:02:47;;;;;;;20.17;3.53;;;10.70;99.90;;;;;;7368024;19;20027;-62
2023/06/02 02:05:13;;;;;;;14.70;3.85;;;10.60;99.90;;;;;;7368410;19;20027;-61
2023/06/02 02:07:42;;;;;;;13.70;3.35;;;10.60;99.90;;;;;;7369844;19;20022;-61
2023/06/02 02:10:12;;;;;;;15.15;3.17;;;10.60;99.90;;;;;;7367459;19;20044;-65
2023/06/02 02:12:38;;;;;;;19.30;3.63;;;10.60;99.90;;;;;;7370203;19;20482;-65
2023/06/02 02:15:07;;;;;;;15.00;3.35;;;10.60;99.90;;;;;;7364611;19;20022;-65
2023/06/02 02:17:34;;;;;;;14.27;3.53;;;10.60;99.90;;;;;;7362483;19;20026;-65
2023/06/02 02:20:01;;;;;;;14.73;3.60;;;10.60;99.90;;;;;;7367861;19;20654;-65
2023/06/02 02:22:28;;;;;;;13.43;3.22;;;10.50;99.90;;;;;;7363840;19;20628;-65
2023/06/02 02:24:54;;;;;;;20.40;4.28;;;10.50;99.90;;;;;;7366420;19;20029;-65
2023/06/02 02:27:23;;;;;;;12.95;3.03;;;10.50;99.90;;;;;;7370500;19;20022;-65
2023/06/02 02:29:51;;;;;;;16.50;3.58;;;10.50;99.90;;;;;;7367118;19;20023;-65
2023/06/02 02:32:17;;;;;;;15.98;3.78;;;10.50;99.90;;;;;;7366274;19;20068;-65
2023/06/02 02:34:46;;;;;;;17.67;4.18;;;10.50;99.90;;;;;;7369576;19;20018;-65
2023/06/02 02:37:19;;;;;;;15.68;3.33;;;10.50;99.90;;;;;;7364618;19;20014;-65
2023/06/02 02:39:48;;;;;;;14.63;3.77;;;10.40;99.90;;;;;;7367722;19;20023;-65
2023/06/02 02:42:15;;;;;;;16.40;4.03;;;10.50;99.90;;;;;;7372074;19;20018;-65
2023/06/02 02:44:41;;;;;;;19.58;3.47;;;10.50;99.90;;;;;;7374890;19;20585;-65
2023/06/02 02:47:08;;;;;;;15.48;3.90;;;10.40;99.90;;;;;;7375331;19;20363;-66
2023/06/02 02:49:34;;;;;;;17.88;3.28;;;10.50;99.90;;;;;;7374131;19;20018;-65
2023/06/02 02:52:02;;;;;;;16.48;4.13;;;10.50;99.90;;;;;;7371667;19;20058;-65
2023/06/02 02:54:29;;;;;;;13.05;3.60;;;10.50;99.90;;;;;;7374416;19;20369;-65
2023/06/02 02:56:56;;;;;;;13.95;3.38;;;10.50;99.90;;;;;;7373452;19;20055;-65
2023/06/02 02:59:22;;;;;;;15.02;4.05;;;10.50;99.90;;;;;;7374537;19;20025;-65
2023/06/02 03:01:48;;;;;;;15.70;3.80;;;10.50;99.90;;;;;;7372690;19;20103;-65
2023/06/02 03:04:21;;;;;;;12.32;3.25;;;10.50;99.90;;;;;;7370260;19;20022;-65
2023/06/02 03:06:50;;;;;;;14.75;3.28;;;10.60;99.90;;;;;;7375081;19;20509;-62
2023/06/02 03:09:19;;;;;;;14.55;3.58;;;10.60;99.90;;;;;;7367876;19;20018;-62
2023/06/02 03:11:47;;;;;;;13.02;2.95;;;10.50;99.90;;;;;;7373233;19;20409;-60
2023/06/02 03:14:14;;;;;;;16.88;3.97;;;10.50;99.90;;;;;;7370046;19;20026;-61
2023/06/02 03:16:44;;;;;;;14.05;3.53;;;10.50;99.90;;;;;;7373548;19;20367;-61
2023/06/02 03:19:13;;;;;;;15.20;3.70;;;10.60;99.90;;;;;;7374707;19;20019;-61
2023/06/02 03:21:44;;;;;;;16.92;3.63;;;10.50;99.90;;;;;;7376733;19;20018;-61
2023/06/02 03:24:14;;;;;;;16.00;3.95;;;10.60;99.90;;;;;;7372662;19;20021;-61
2023/06/02 03:26:42;;;;;;;15.85;3.42;;;10.60;99.90;;;;;;7376554;19;20022;-61
2023/06/02 03:29:14;;;;;;;;;;;10.60;99.90;;;;;;7373748;19;20027;-61
2023/06/02 03:31:41;;;;;;;12.57;2.85;;;10.60;99.90;;;;;;7373937;19;19930;-61
2023/06/02 03:34:09;;;;;;;17.05;3.50;;;10.60;99.90;;;;;;7370333;19;20562;-61
2023/06/02 03:36:36;;;;;;;17.77;3.90;;;10.60;99.90;;;;;;7377329;19;20016;-65
2023/06/02 03:39:05;;;;;;;13.43;4.30;;;10.60;99.90;;;;;;7376075;19;20011;-65
2023/06/02 03:41:33;;;;;;;22.35;4.15;;;10.60;99.90;;;;;;7374579;19;20022;-65
2023/06/02 03:44:03;;;;;;;15.10;3.22;;;10.60;99.90;;;;;;7374051;19;20089;-65
2023/06/02 03:46:29;;;;;;;15.77;3.50;;;10.60;99.90;;;;;;7377783;19;20022;-65
2023/06/02 03:48:58;;;;;;;12.60;3.70;;;10.60;99.90;;;;;;7372831;19;20010;-65
2023/06/02 03:51:25;;;;;;;14.13;3.30;;;10.70;99.90;;;;;;7371824;19;20020;-65
2023/06/02 03:53:53;;;;;;;12.50;3.40;;;10.70;99.90;;;;;;7371318;19;20117;-65
2023/06/02 03:56:20;;;;;;;19.75;3.70;;;10.70;99.90;;;;;;7373975;19;20014;-65
2023/06/02 03:58:48;;;;;;;11.85;3.03;;;10.70;99.90;;;;;;7368272;19;20754;-66
2023/06/02 04:01:17;;;;;;;18.25;3.88;;;10.70;99.90;;;;;;7371484;19;20018;-61
2023/06/02 04:03:44;;;;;;;14.25;3.05;;;10.70;99.90;;;;;;7369873;19;20014;-62
2023/06/02 04:06:13;;;;;;;15.95;3.65;;;10.70;99.90;;;;;;7365438;19;20692;-62
2023/06/02 04:08:40;;;;;;;13.95;3.53;;;10.80;99.90;;;;;;7369644;19;20862;-61
2023/06/02 04:11:07;;;;;;;12.13;4.13;;;10.80;99.90;;;;;;7365063;19;20090;-62
2023/06/02 04:13:34;;;;;;;15.60;3.90;;;10.80;99.90;;;;;;7374169;19;20045;-62
2023/06/02 04:16:01;;;;;;;15.90;3.55;;;10.80;99.90;;;;;;7369648;19;20022;-61
2023/06/02 04:18:30;;;;;;;16.83;3.60;;;10.80;99.90;;;;;;7370207;19;20018;-61
2023/06/02 04:20:58;;;;;;;20.15;4.15;;;10.90;99.90;;;;;;7367611;19;20053;-62
2023/06/02 04:23:25;;;;;;;14.07;3.58;;;10.90;99.90;;;;;;7372444;19;20773;-65
2023/06/02 04:25:51;;;;;;;16.42;3.25;;;10.90;99.90;;;;;;7368378;19;20624;-65
2023/06/02 04:28:19;;;;;;;14.93;3.65;;;10.90;99.90;;;;;;7369476;19;20027;-61
2023/06/02 04:30:54;;;;;;;17.13;3.83;;;10.90;99.90;;;;;;7369585;19;20018;-65
2023/06/02 04:33:23;;;;;;;18.50;3.83;;;10.90;99.90;;;;;;7368690;19;20043;-62
2023/06/02 04:35:50;;;;;;;12.15;2.92;;;10.90;99.90;;;;;;7365212;19;20026;-62
2023/06/02 04:38:18;;;;;;;16.75;3.78;;;10.90;99.90;;;;;;7367371;19;20059;-61
2023/06/02 04:40:46;;;;;;;12.73;3.60;;;11.00;99.90;;;;;;7367678;19;20359;-60
2023/06/02 04:43:13;;;;;;;12.65;4.00;;;11.00;99.90;;;;;;7368255;19;20051;-61
2023/06/02 04:45:45;;;;;;;14.15;4.25;;;11.00;99.90;;;;;;7365500;19;20019;-60
2023/06/02 04:48:14;;;;;;;12.93;3.05;;;11.00;99.90;;;;;;7368461;19;20474;-61
2023/06/02 04:50:40;;;;;;;13.15;3.35;;;11.10;99.90;;;;;;7369264;19;20018;-64
2023/06/02 04:53:08;;;;;;;15.90;3.85;;;11.10;99.90;;;;;;7365481;19;20018;-61
2023/06/02 04:55:34;;;;;;;13.73;3.55;;;11.10;99.90;;;;;;7370383;19;20683;-61
2023/06/02 04:58:02;;;;;;;19.70;3.58;;;11.20;99.90;;;;;;7361233;19;20063;-61
2023/06/02 05:00:29;;;;;;;13.30;3.45;;;11.20;99.90;;;;;;7369871;19;20506;-65
2023/06/02 05:02:57;;;;;;;13.88;3.50;;;11.20;99.90;;;;;;7368708;19;20035;-65
2023/06/02 05:05:25;;;;;;;14.43;3.63;;;11.20;99.90;;;;;;7369807;19;20031;-65
2023/06/02 05:07:53;;;;;;;15.40;4.03;;;11.30;99.90;;;;;;7371540;19;21131;-61
2023/06/02 05:10:23;;;;;;;16.73;4.25;;;11.40;99.90;;;;;;7370573;19;20022;-61
2023/06/02 05:12:52;;;;;;;15.93;3.92;;;11.40;99.90;;;;;;7369737;19;20022;-60
2023/06/02 05:15:18;;;;;;;16.58;4.28;;;11.40;99.90;;;;;;7366649;19;20023;-61
2023/06/02 05:17:47;;;;;;;19.33;3.58;;;11.50;99.90;;;;;;7368258;19;20022;-62
2023/06/02 05:20:15;;;;;;;21.45;4.55;;;11.50;99.90;;;;;;7368742;19;20050;-60
2023/06/02 05:22:41;;;;;;;15.85;3.83;;;11.60;99.90;;;;;;7371693;19;20089;-61
2023/06/02 05:25:10;;;;;;;22.02;4.28;;;11.70;99.90;;;;;;7372792;19;20018;-61
2023/06/02 05:27:37;;;;;;;11.95;3.33;;;11.80;99.90;;;;;;7369994;19;20058;-61
2023/06/02 05:30:04;;;;;;;14.50;2.95;;;11.80;99.90;;;;;;7369639;19;20078;-65
2023/06/02 05:32:31;;;;;;;13.23;3.15;;;11.90;99.90;;;;;;7368383;19;20018;-61
2023/06/02 05:34:58;;;;;;;16.15;3.63;;;11.90;99.90;;;;;;7365419;19;20671;-65
2023/06/02 05:37:24;;;;;;;16.95;3.33;;;11.90;99.90;;;;;;7365300;19;20014;-61
2023/06/02 05:39:52;;;;;;;13.93;3.83;;;11.90;99.90;;;;;;7367953;19;20022;-60
2023/06/02 05:42:20;;;;;;;17.95;3.80;;;11.90;99.90;;;;;;7369426;19;20028;-61
2023/06/02 05:44:47;;;;;;;16.95;4.40;;;11.90;99.90;;;;;;7369113;19;20026;-62
2023/06/02 05:47:13;;;;;;;17.25;3.75;;;11.90;99.90;;;;;;7368308;19;20030;-60
2023/06/02 05:49:40;;;;;;;19.75;4.07;;;11.80;99.90;;;;;;7369623;19;20043;-60
2023/06/02 05:52:06;;;;;;;21.27;4.78;;;11.90;99.90;;;;;;7367346;19;20122;-60
2023/06/02 05:54:33;;;;;;;18.45;4.00;;;12.00;99.90;;;;;;7367952;19;20014;-65
2023/06/02 05:57:01;;;;;;;18.15;4.20;;;12.00;99.90;;;;;;7366260;19;20031;-65
2023/06/02 05:59:28;;;;;;;16.25;4.47;;;12.10;99.90;;;;;;7369415;19;20019;-65
2023/06/02 06:01:54;;;;;;;12.90;4.82;;;12.20;99.90;;;;;;7365994;19;20054;-65
2023/06/02 06:04:21;;;;;;;16.88;3.47;;;12.20;99.90;;;;;;7367557;19;20014;-65
2023/06/02 06:06:48;;;;;;;18.63;4.00;;;12.30;99.90;;;;;;7366222;19;20030;-60
2023/06/02 06:09:14;;;;;;;21.73;5.32;;;12.30;99.90;;;;;;7365436;19;20015;-65
2023/06/02 06:11:42;;;;;;;17.35;4.13;;;12.30;99.90;;;;;;7366353;19;20019;-60
2023/06/02 06:14:08;;;;;;;21.40;4.53;;;12.40;99.90;;;;;;7364422;19;20018;-65
2023/06/02 06:16:37;;;;;;;13.27;3.45;;;12.50;99.90;;;;;;7375337;19;20439;-61
2023/06/02 06:19:04;;;;;;;22.75;4.85;;;12.40;99.90;;;;;;7378725;19;20062;-58
2023/06/02 06:21:30;;;;;;;19.48;5.88;;;12.40;99.90;;;;;;7376586;19;20022;-59
2023/06/02 06:23:57;;;;;;;23.75;5.90;;;12.60;99.90;;;;;;7385685;19;20891;-63
2023/06/02 06:26:26;;;;;;;22.60;4.68;;;12.60;99.90;;;;;;7378222;19;20034;-65
2023/06/02 06:28:58;;;;;;;20.23;5.30;;;12.60;99.90;;;;;;7379928;19;20574;-65
2023/06/02 06:31:25;;;;;;;16.88;5.25;;;12.70;99.90;;;;;;7378178;19;20580;-67
2023/06/02 06:33:52;;;;;;;20.77;4.30;;;12.70;99.90;;;;;;7376821;19;20030;-66
2023/06/02 06:36:18;;;;;;;13.88;4.38;;;12.90;99.90;;;;;;7373217;19;20034;-65
2023/06/02 06:38:45;;;;;;;18.73;4.47;;;12.90;99.90;;;;;;7369479;19;20482;-59
2023/06/02 06:41:11;;;;;;;27.83;4.60;;;13.00;99.90;;;;;;7373900;19;20018;-59
2023/06/02 06:43:39;;;;;;;19.42;4.10;;;12.90;99.90;;;;;;7376235;19;20533;-59
2023/06/02 06:46:10;;;;;;;16.80;4.03;;;13.00;99.90;;;;;;7374729;19;20023;-59
2023/06/02 06:48:36;;;;;;;17.20;4.38;;;13.10;99.90;;;;;;7375691;19;20062;-59
2023/06/02 06:51:03;;;;;;;22.60;4.30;;;13.00;99.90;;;;;;7377462;19;20037;-58
2023/06/02 06:53:29;;;;;;;29.75;4.90;;;13.00;99.90;;;;;;7376023;19;20026;-59
2023/06/02 06:55:55;;;;;;;24.63;5.22;;;13.00;99.90;;;;;;7377533;19;20022;-65
2023/06/02 06:58:22;;;;;;;19.77;6.13;;;13.00;99.90;;;;;;7372201;19;20098;-65
2023/06/02 07:00:51;;;;;;;45.80;24.85;;;13.10;99.90;;;;;;7378181;19;20033;-61
2023/06/02 07:03:20;;;;;;;75.07;53.72;;;13.20;99.90;;;;;;7375765;19;20014;-66
2023/06/02 07:05:47;;;;;;;29.00;9.23;;;13.40;99.90;;;;;;7373543;19;20093;-67
2023/06/02 07:08:13;;;;;;;24.30;6.60;;;13.50;99.90;;;;;;7373281;19;20677;-67
2023/06/02 07:10:40;;;;;;;30.23;10.30;;;13.70;99.90;;;;;;7374074;19;20022;-66
2023/06/02 07:13:06;;;;;;;25.95;9.20;;;13.70;99.90;;;;;;7372371;19;20011;-65
2023/06/02 07:15:32;;;;;;;25.65;7.40;;;13.90;99.90;;;;;;7373709;19;20379;-63
2023/06/02 07:17:59;;;;;;;20.20;5.13;;;14.00;99.90;;;;;;7368276;19;20015;-61
2023/06/02 07:20:25;;;;;;;21.60;5.07;;;14.00;99.90;;;;;;7371603;19;20018;-62
2023/06/02 07:22:52;;;;;;;20.15;4.82;;;14.20;99.90;;;;;;7369107;19;20044;-63
2023/06/02 07:25:18;;;;;;;22.75;5.88;;;14.30;99.90;;;;;;7370897;19;20026;-67
2023/06/02 07:27:44;;;;;;;24.50;5.80;;;14.40;99.90;;;;;;7366744;19;20022;-66
2023/06/02 07:30:11;;;;;;;27.30;6.90;;;14.40;99.90;;;;;;7371651;19;20026;-64
2023/06/02 07:32:37;;;;;;;28.92;10.07;;;14.50;99.90;;;;;;7370099;19;20022;-64
2023/06/02 07:35:04;;;;;;;24.67;7.20;;;14.50;99.90;;;;;;7369317;19;20019;-64
2023/06/02 07:37:30;;;;;;;33.97;16.98;;;14.50;99.90;;;;;;7371701;19;20406;-64
2023/06/02 07:39:56;;;;;;;25.90;10.93;;;14.50;99.90;;;;;;7371235;19;20072;-64
2023/06/02 07:42:23;;;;;;;21.30;5.28;;;14.60;99.90;;;;;;7372004;19;20471;-62
2023/06/02 07:44:50;;;;;;;27.55;5.88;;;14.60;99.90;;;;;;7374984;19;20014;-61
2023/06/02 07:47:17;;;;;;;23.00;6.03;;;14.80;99.90;;;;;;7372425;19;20025;-61
2023/06/02 07:49:43;;;;;;;15.65;4.82;;;15.00;99.90;;;;;;7376549;19;20509;-61
2023/06/02 07:52:10;;;;;;;20.30;5.18;;;15.10;99.90;;;;;;7372630;19;20374;-66
2023/06/02 07:54:36;;;;;;;22.52;6.70;;;15.20;99.90;;;;;;7370989;19;20785;-66
2023/06/02 07:57:02;;;;;;;20.77;5.50;;;15.50;99.90;;;;;;7368591;19;20022;-66
2023/06/02 07:59:29;;;;;;;20.83;5.65;;;15.70;99.90;;;;;;7371098;19;20395;-66
2023/06/02 08:01:55;;;;;;;16.30;4.93;;;15.70;99.90;;;;;;7368989;19;20860;-64
2023/06/02 08:04:25;;;;;;;34.08;13.02;;;15.90;99.90;;;;;;7370078;19;20717;-65
2023/06/02 08:06:55;;;;;;;26.17;7.05;;;16.00;99.90;;;;;;7369044;19;20082;-65
2023/06/02 08:09:22;;;;;;;17.58;5.70;;;16.10;99.90;;;;;;7371378;19;20093;-66
2023/06/02 08:11:49;;;;;;;23.85;8.48;;;16.50;99.90;;;;;;7365834;19;20015;-66
2023/06/02 08:14:16;;;;;;;42.15;28.73;;;17.10;99.90;;;;;;7369093;19;20043;-65
2023/06/02 08:16:42;;;;;;;31.63;19.52;;;17.20;99.90;;;;;;7369156;19;20018;-62
2023/06/02 08:19:10;;;;;;;20.00;8.27;;;17.80;99.90;;;;;;7370506;19;20023;-63
2023/06/02 08:21:39;;;;;;;26.73;13.07;;;18.40;99.90;;;;;;7372648;19;20027;-61
2023/06/02 08:24:05;;;;;;;16.90;7.43;;;18.90;99.90;;;;;;7367001;19;20015;-60
2023/06/02 08:26:32;;;;;;;20.75;7.07;;;18.70;99.90;;;;;;7370229;19;20018;-59
2023/06/02 08:28:59;;;;;;;19.77;5.32;;;19.10;99.90;;;;;;7374585;19;20014;-60
2023/06/02 08:31:26;;;;;;;17.42;4.72;;;19.40;99.90;;;;;;7372969;19;20657;-59
2023/06/02 08:33:53;;;;;;;17.95;6.03;;;19.40;99.90;;;;;;7374916;19;20388;-61
2023/06/02 08:36:20;;;;;;;16.30;5.00;;;19.20;99.90;;;;;;7372115;19;20725;-59
2023/06/02 08:38:51;;;;;;;19.10;5.03;;;19.70;99.90;;;;;;7367941;19;20691;-59
2023/06/02 08:41:18;;;;;;;18.63;4.93;;;19.80;99.90;;;;;;7368612;19;20018;-59
2023/06/02 08:43:44;;;;;;;17.98;5.15;;;19.60;99.90;;;;;;7373544;19;20021;-60
2023/06/02 08:46:15;;;;;;;16.05;4.00;;;20.00;99.90;;;;;;7365248;19;20783;-60
2023/06/02 08:48:45;;;;;;;13.93;4.20;;;20.60;99.90;;;;;;7373620;19;20026;-59
2023/06/02 08:51:19;;;;;;;14.75;3.53;;;20.80;99.90;;;;;;7375031;19;20011;-60
2023/06/02 08:53:49;;;;;;;15.05;4.25;;;21.30;99.90;;;;;;7376702;19;20022;-59
2023/06/02 08:56:16;;;;;;;18.17;4.53;;;21.70;99.90;;;;;;7377268;19;20639;-59
2023/06/02 08:58:46;;;;;;;15.13;3.80;;;21.70;99.80;;;;;;7371835;19;20624;-61
2023/06/02 09:01:13;;;;;;;15.98;9.35;;;22.00;97.50;;;;;;7372804;19;20018;-64
2023/06/02 09:03:40;;;;;;;13.63;5.50;;;22.10;96.40;;;;;;7372788;19;20022;-64
2023/06/02 09:06:21;;;;;;;12.00;3.42;;;22.20;95.20;;;;;;7372912;19;20078;-64
2023/06/02 09:08:58;;;;;;;62.72;54.88;;;21.80;93.00;;;;;;7369972;19;20018;-66
2023/06/02 09:11:29;;;;;;;25.63;13.93;;;21.40;92.50;;;;;;7372018;19;20060;-65
2023/06/02 09:13:56;;;;;;;13.45;4.15;;;21.10;93.70;;;;;;7370263;19;20018;-65
2023/06/02 09:16:36;;;;;;;29.50;20.05;;;20.90;93.20;;;;;;7368731;19;20022;-65
2023/06/02 09:19:03;;;;;;;19.35;8.23;;;21.00;92.50;;;;;;7374254;19;20058;-60
2023/06/02 09:21:32;;;;;;;26.05;15.95;;;21.30;92.00;;;;;;7374110;19;20018;-60
2023/06/02 09:24:01;;;;;;;13.25;5.20;;;21.70;91.20;;;;;;7373072;19;20054;-60
2023/06/02 09:26:30;;;;;;;19.95;14.38;;;22.10;88.90;;;;;;7375569;19;20018;-60
2023/06/02 09:29:06;;;;;;;14.13;8.25;;;22.60;89.20;;;;;;7373569;19;20018;-60
2023/06/02 09:31:53;;;;;;;23.08;17.10;;;22.90;84.30;;;;;;7376503;19;20030;-60
2023/06/02 09:34:24;;;;;;;25.48;16.17;;;23.20;81.10;;;;;;7374084;19;20018;-61
2023/06/02 09:36:53;;;;;;;40.88;35.67;;;23.50;80.60;;;;;;7372032;19;20018;-61
2023/06/02 09:39:38;;;;;;;35.83;31.98;;;24.00;76.40;;;;;;7369561;19;20022;-61
2023/06/02 09:42:06;;;;;;;29.42;23.88;;;24.30;67.20;;;;;;7374502;19;20018;-61
2023/06/02 09:44:33;;;;;;;18.38;12.18;;;24.00;68.80;;;;;;7370930;19;20122;-61
2023/06/02 09:47:02;;;;;;;11.45;5.10;;;24.10;66.60;;;;;;7367291;19;20016;-61
2023/06/02 09:49:39;;;;;;;12.82;4.32;;;23.60;65.50;;;;;;7373922;19;20019;-61
2023/06/02 09:52:16;;;;;;;16.15;12.05;;;24.20;67.30;;;;;;7370735;19;20014;-61
2023/06/02 09:54:43;;;;;;;12.60;4.22;;;24.50;66.60;;;;;;7374069;19;20026;-61
2023/06/02 09:57:11;;;;;;;11.65;7.13;;;24.70;65.00;;;;;;7370762;19;20376;-61
2023/06/02 09:59:39;;;;;;;7.90;2.47;;;25.10;61.60;;;;;;7374440;19;20025;-61
2023/06/02 10:02:10;;;;;;;11.88;5.03;;;25.40;60.20;;;;;;7370657;19;20021;-62
2023/06/02 10:04:36;;;;;;;19.60;8.50;;;25.50;59.60;;;;;;7372584;19;20026;-61
2023/06/02 10:07:36;;;;;;;11.02;4.22;;;24.70;58.80;;;;;;7370802;19;20022;-61
2023/06/02 10:10:27;;;;;;;9.48;4.25;;;24.20;56.80;;;;;;7371894;19;20026;-61
2023/06/02 10:13:37;;;;;;;9.73;2.65;;;24.10;55.90;;;;;;7370819;19;20021;-61
2023/06/02 10:16:27;;;;;;;11.90;5.53;;;23.40;57.00;;;;;;7370801;19;20019;-61
2023/06/02 10:19:17;;;;;;;10.02;2.63;;;23.40;59.80;;;;;;7369018;19;20022;-61
2023/06/02 10:21:58;;;;;;;8.93;2.78;;;23.10;57.90;;;;;;7375810;19;20015;-62
2023/06/02 10:24:39;;;;;;;7.05;2.05;;;23.10;58.80;;;;;;7372428;19;20076;-61
2023/06/02 10:27:06;;;;;;;;;;;23.60;57.90;;;;;;7375989;19;20022;-61
2023/06/02 10:29:34;;;;;;;9.27;2.40;;;23.20;56.50;;;;;;7371060;19;20508;-61
2023/06/02 10:32:16;;;;;;;9.93;2.30;;;23.90;58.80;;;;;;7368574;19;20020;-64
2023/06/02 10:34:42;;;;;;;11.35;5.78;;;24.10;58.90;;;;;;7369937;19;20051;-69
2023/06/02 10:37:13;;;;;;;13.35;2.67;;;23.60;57.30;;;;;;7371044;19;20026;-61
2023/06/02 10:39:39;;;;;;;19.90;11.98;;;23.30;58.00;;;;;;7372112;19;20018;-63
2023/06/02 10:42:10;;;;;;;33.47;26.35;;;23.10;58.40;;;;;;7367980;19;20025;-61
2023/06/02 10:44:37;;;;;;;9.50;2.05;;;23.10;58.70;;;;;;7370019;19;20022;-73
2023/06/02 10:47:19;;;;;;;23.45;18.20;;;22.90;59.20;;;;;;7358738;19;20033;-67
2023/06/02 10:49:58;;;;;;;19.27;12.30;;;22.90;58.90;;;;;;7360692;19;20542;-67
2023/06/02 10:52:25;;;;;;;15.57;10.18;;;23.60;59.70;;;;;;7366675;19;20064;-68
2023/06/02 10:55:24;;;;;;;14.20;8.48;;;24.50;58.90;;;;;;7368320;19;20781;-67
2023/06/02 10:58:03;;;;;;;12.82;8.00;;;25.50;56.60;;;;;;7364884;19;20011;-67
2023/06/02 11:00:35;;;;;;;10.82;7.40;;;25.60;56.60;;;;;;7370078;19;20022;-69
2023/06/02 11:03:02;;;;;;;10.45;5.20;;;26.20;55.30;;;;;;7373568;19;20018;-68
2023/06/02 11:05:30;;;;;;;6.38;3.60;;;25.40;53.90;;;;;;7377918;19;20022;-60
2023/06/02 11:08:27;;;;;;;5.90;1.60;;;26.40;54.00;;;;;;7379588;19;20022;-60
2023/06/02 11:11:02;;;;;;;10.32;4.78;;;26.80;52.50;;;;;;7378465;19;20097;-61
2023/06/02 11:13:29;;;;;;;10.82;2.08;;;26.00;50.40;;;;;;7382102;19;20370;-61
2023/06/02 11:15:56;;;;;;;7.07;4.28;;;25.60;51.90;;;;;;7378845;19;20589;-61
2023/06/02 11:18:23;;;;;;;7.53;4.82;;;24.70;52.00;;;;;;7378478;19;20043;-62
2023/06/02 11:20:50;;;;;;;9.20;3.67;;;24.10;52.40;;;;;;7379848;19;20871;-61
2023/06/02 11:23:18;;;;;;;8.27;3.10;;;23.80;53.30;;;;;;7376856;19;20782;-62
2023/06/02 11:25:45;;;;;;;6.20;2.20;;;23.40;53.50;;;;;;7381442;19;20022;-62
2023/06/02 11:28:21;;;;;;;8.60;3.25;;;23.70;53.80;;;;;;7380210;19;20026;-64
2023/06/02 11:30:49;;;;;;;8.23;2.00;;;24.80;54.60;;;;;;7375570;19;20042;-62
2023/06/02 11:33:16;;;;;;;20.70;17.00;;;24.80;53.50;;;;;;7375892;19;20553;-64
2023/06/02 11:35:46;;;;;;;6.38;2.22;;;24.60;53.30;;;;;;7374761;19;20094;-62
2023/06/02 11:38:16;;;;;;;28.63;24.65;;;25.10;52.20;;;;;;7370193;19;20039;-62
2023/06/02 11:40:46;;;;;;;8.63;3.13;;;24.80;52.40;;;;;;7387915;19;20485;-65
2023/06/02 11:43:21;;;;;;;15.65;7.05;;;24.50;51.40;;;;;;7382597;19;20026;-63
2023/06/02 11:45:47;;;;;;;20.77;18.65;;;24.80;52.30;;;;;;7375579;19;20763;-65
2023/06/02 11:48:14;;;;;;;11.95;8.25;;;24.80;51.40;;;;;;7380493;19;20014;-68
2023/06/02 11:50:40;;;;;;;9.95;4.82;;;25.40;51.50;;;;;;7364133;19;20867;-70
2023/06/02 11:53:14;;;;;;;13.68;9.93;;;26.00;51.30;;;;;;7368371;19;20026;-71
2023/06/02 11:55:40;;;;;;;7.95;4.65;;;25.70;48.90;;;;;;7370529;19;20029;-68
2023/06/02 11:58:39;;;;;;;7.43;5.43;;;25.10;49.50;;;;;;7371555;19;20022;-70
2023/06/02 12:01:07;;;;;;;27.08;22.83;;;24.50;48.10;;;;;;7367829;19;20018;-67
2023/06/02 12:03:34;;;;;;;6.32;1.77;;;24.50;48.50;;;;;;7371272;19;20022;-67
2023/06/02 12:06:15;;;;;;;3.42;1.83;;;25.00;48.90;;;;;;7375165;19;20056;-67
2023/06/02 12:08:42;;;;;;;6.65;3.63;;;25.30;46.00;;;;;;7375643;19;20501;-68
2023/06/02 12:11:21;;;;;;;43.35;38.95;;;25.80;47.30;;;;;;7369384;19;20026;-67
2023/06/02 12:14:01;;;;;;;27.05;22.60;;;26.20;47.00;;;;;;7375068;19;20021;-67
2023/06/02 12:16:28;;;;;;;6.77;3.20;;;26.70;45.10;;;;;;7372989;19;20060;-68
2023/06/02 12:19:16;;;;;;;4.40;2.08;;;26.50;44.50;;;;;;7375910;19;20029;-62
2023/06/02 12:21:47;;;;;;;4.50;2.35;;;26.40;43.60;;;;;;7381697;19;20269;-63
2023/06/02 12:24:43;;;;;;;18.15;15.73;;;26.70;45.80;;;;;;7386936;19;20056;-63
2023/06/02 12:27:15;;;;;;;12.95;10.73;;;26.90;41.90;;;;;;7387565;19;20489;-64
2023/06/02 12:29:45;;;;;;;23.60;20.95;;;27.30;41.00;;;;;;7390131;19;20086;-64
2023/06/02 12:32:11;;;;;;;8.55;4.30;;;27.30;39.80;;;;;;7379792;19;20060;-67
2023/06/02 12:34:40;;;;;;;5.60;2.42;;;27.30;39.80;;;;;;7379295;19;20030;-66
2023/06/02 12:37:07;;;;;;;6.78;2.03;;;27.50;40.00;;;;;;7379516;19;20018;-65
2023/06/02 12:39:34;;;;;;;3.88;2.05;;;27.40;39.20;;;;;;7383284;19;20018;-65
2023/06/02 12:42:02;;;;;;;5.45;2.13;;;27.40;38.90;;;;;;7379307;19;20019;-65
2023/06/02 12:44:28;;;;;;;6.95;2.80;;;27.60;38.40;;;;;;7381824;19;20070;-65
2023/06/02 12:46:55;;;;;;;6.50;3.10;;;27.80;38.10;;;;;;7384046;19;20026;-65
2023/06/02 12:49:22;;;;;;;5.63;1.92;;;28.10;38.60;;;;;;7384394;19;20024;-65